createdAt,value
2018-08-31T00:01:38.441Z,8.00
2018-08-31T00:04:43.946Z,8.67
2018-08-31T00:07:29.249Z,8.30
2018-08-31T00:12:19.759Z,7.93
2018-08-31T00:14:48.723Z,8.80
2018-08-31T00:17:17.652Z,8.30
2018-08-31T00:19:46.309Z,7.93
2018-08-31T00:22:14.997Z,8.23
2018-08-31T00:24:59.482Z,7.47
2018-08-31T00:27:39.042Z,8.20
2018-08-31T00:30:18.633Z,8.00
2018-08-31T00:38:03.201Z,7.83
2018-08-31T00:41:11.746Z,7.90
2018-08-31T00:45:49.523Z,7.63
2018-08-31T00:48:18.097Z,7.37
2018-08-31T00:50:46.677Z,8.27
2018-08-31T00:53:15.361Z,7.57
2018-08-31T00:55:43.962Z,8.03
2018-08-31T00:58:12.570Z,8.43
2018-08-31T01:00:41.412Z,7.80
2018-08-31T01:03:10.117Z,7.07
2018-08-31T01:05:38.887Z,7.13
2018-08-31T01:08:07.896Z,8.73
2018-08-31T01:10:36.920Z,8.20
2018-08-31T01:13:05.557Z,8.07
2018-08-31T01:15:34.141Z,9.77
2018-08-31T01:18:02.804Z,8.43
2018-08-31T01:20:31.432Z,8.17
2018-08-31T01:23:00.046Z,8.20
2018-08-31T01:25:28.728Z,8.40
2018-08-31T01:27:57.539Z,8.80
2018-08-31T01:30:26.203Z,8.13
2018-08-31T01:32:54.966Z,8.73
2018-08-31T01:35:23.594Z,8.53
2018-08-31T01:37:52.183Z,8.53
2018-08-31T01:40:20.834Z,9.20
2018-08-31T01:42:49.424Z,8.97
2018-08-31T01:45:18.035Z,8.77
2018-08-31T01:47:46.601Z,8.60
2018-08-31T01:50:15.234Z,8.63
2018-08-31T01:52:43.895Z,9.83
2018-08-31T01:55:12.474Z,9.60
2018-08-31T01:57:41.037Z,9.40
2018-08-31T02:00:09.976Z,9.37
2018-08-31T02:02:38.553Z,8.77
2018-08-31T02:05:07.310Z,9.77
2018-08-31T02:07:35.930Z,9.57
2018-08-31T02:10:05.359Z,10.80
2018-08-31T02:12:34.022Z,10.63
2018-08-31T02:15:02.665Z,9.20
2018-08-31T02:17:31.335Z,10.17
2018-08-31T02:19:59.957Z,9.87
2018-08-31T02:22:28.625Z,11.43
2018-08-31T02:24:57.313Z,10.93
2018-08-31T02:27:26.006Z,11.60
2018-08-31T02:29:54.618Z,10.63
2018-08-31T02:32:23.251Z,10.37
2018-08-31T02:34:51.923Z,11.03
2018-08-31T02:37:20.612Z,9.70
2018-08-31T02:39:49.281Z,10.60
2018-08-31T02:42:18.016Z,10.13
2018-08-31T02:44:52.049Z,11.07
2018-08-31T02:47:20.610Z,11.10
2018-08-31T02:49:49.352Z,10.50
2018-08-31T02:52:17.914Z,12.07
2018-08-31T02:54:46.958Z,10.40
2018-08-31T02:57:15.555Z,9.63
2018-08-31T02:59:44.141Z,9.73
2018-08-31T03:02:12.721Z,11.17
2018-08-31T03:04:41.389Z,10.30
2018-08-31T03:07:10.014Z,10.67
2018-08-31T03:09:38.661Z,10.67
2018-08-31T03:12:07.275Z,10.77
2018-08-31T03:14:35.864Z,10.30
2018-08-31T03:17:04.510Z,10.97
2018-08-31T03:19:33.197Z,10.20
2018-08-31T03:22:01.801Z,10.30
2018-08-31T03:24:31.126Z,10.43
2018-08-31T03:26:59.701Z,10.47
2018-08-31T03:29:28.317Z,11.13
2018-08-31T03:31:56.994Z,10.20
2018-08-31T03:34:25.599Z,11.13
2018-08-31T03:36:54.256Z,10.53
2018-08-31T03:39:23.389Z,10.40
2018-08-31T03:41:52.950Z,10.47
2018-08-31T03:44:21.637Z,10.37
2018-08-31T03:46:50.337Z,9.80
2018-08-31T03:49:19.025Z,11.40
2018-08-31T03:51:47.690Z,10.90
2018-08-31T03:54:16.369Z,11.80
2018-08-31T03:56:45.010Z,10.17
2018-08-31T03:59:13.621Z,9.23
2018-08-31T04:01:42.320Z,9.97
2018-08-31T04:04:10.972Z,10.10
2018-08-31T04:06:39.565Z,9.70
2018-08-31T04:09:08.855Z,8.17
2018-08-31T04:11:37.433Z,9.67
2018-08-31T04:14:06.286Z,10.10
2018-08-31T04:16:34.878Z,9.97
2018-08-31T04:19:07.585Z,9.97
2018-08-31T04:21:36.221Z,9.27
2018-08-31T04:24:04.809Z,9.10
2018-08-31T04:26:33.470Z,9.33
2018-08-31T04:29:02.060Z,9.47
2018-08-31T04:31:30.710Z,9.30
2018-08-31T04:33:59.471Z,9.20
2018-08-31T04:36:28.079Z,9.43
2018-08-31T04:38:56.668Z,9.63
2018-08-31T04:41:25.319Z,9.53
2018-08-31T04:43:54.071Z,8.90
2018-08-31T04:46:23.277Z,10.17
2018-08-31T04:48:51.906Z,9.30
2018-08-31T04:51:20.510Z,8.60
2018-08-31T04:53:49.067Z,10.40
2018-08-31T04:56:17.647Z,9.27
2018-08-31T04:58:46.269Z,9.10
2018-08-31T05:01:16.096Z,8.97
2018-08-31T05:03:44.727Z,9.63
2018-08-31T05:06:13.329Z,9.30
2018-08-31T05:08:41.921Z,9.30
2018-08-31T05:11:10.636Z,9.90
2018-08-31T05:13:39.390Z,9.87
2018-08-31T05:16:08.917Z,9.80
2018-08-31T05:18:37.523Z,9.53
2018-08-31T05:21:06.182Z,8.90
2018-08-31T05:23:34.806Z,9.30
2018-08-31T05:26:03.498Z,8.60
2018-08-31T05:28:32.282Z,8.80
2018-08-31T05:31:03.432Z,9.60
2018-08-31T05:33:32.264Z,9.50
2018-08-31T05:36:00.901Z,9.37
2018-08-31T05:38:31.900Z,8.57
2018-08-31T05:41:00.573Z,8.97
2018-08-31T05:43:29.154Z,9.60
2018-08-31T05:45:57.833Z,9.00
2018-08-31T05:48:26.445Z,9.27
2018-08-31T05:50:55.085Z,8.80
2018-08-31T05:53:23.748Z,8.40
2018-08-31T05:55:52.397Z,8.63
2018-08-31T05:58:21.076Z,10.30
2018-08-31T06:00:49.670Z,8.00
2018-08-31T06:03:18.272Z,8.10
2018-08-31T06:05:47.049Z,9.67
2018-08-31T06:08:15.701Z,7.87
2018-08-31T06:10:44.338Z,8.50
2018-08-31T06:13:13.238Z,8.30
2018-08-31T06:15:41.897Z,8.47
2018-08-31T06:18:10.746Z,8.53
2018-08-31T06:20:39.455Z,8.53
2018-08-31T06:23:08.156Z,8.63
2018-08-31T06:25:36.852Z,8.20
2018-08-31T06:28:05.632Z,9.00
2018-08-31T06:30:34.512Z,7.63
2018-08-31T06:33:03.696Z,8.77
2018-08-31T06:35:32.390Z,7.60
2018-08-31T06:38:01.082Z,7.20
2018-08-31T06:40:29.776Z,8.90
2018-08-31T06:42:58.478Z,8.23
2018-08-31T06:45:27.206Z,9.47
2018-08-31T06:47:55.878Z,7.70
2018-08-31T06:50:24.489Z,8.07
2018-08-31T06:52:53.143Z,7.57
2018-08-31T06:55:21.858Z,8.70
2018-08-31T06:57:50.617Z,8.60
2018-08-31T07:00:19.318Z,8.80
2018-08-31T07:02:47.949Z,8.97
2018-08-31T07:05:16.605Z,8.37
2018-08-31T07:07:45.373Z,7.73
2018-08-31T07:10:14.118Z,9.30
2018-08-31T07:12:42.865Z,10.10
2018-08-31T07:15:11.694Z,8.80
2018-08-31T07:17:41.031Z,8.80
2018-08-31T07:20:09.723Z,9.47
2018-08-31T07:22:38.464Z,9.60
2018-08-31T07:25:07.232Z,9.93
2018-08-31T07:27:35.988Z,10.27
2018-08-31T07:30:04.898Z,9.27
2018-08-31T07:32:34.480Z,10.50
2018-08-31T07:35:03.148Z,8.70
2018-08-31T07:37:31.788Z,8.90
2018-08-31T07:40:00.441Z,9.70
2018-08-31T07:42:29.066Z,10.60
2018-08-31T07:44:57.651Z,10.80
2018-08-31T07:47:26.242Z,10.20
2018-08-31T07:49:54.882Z,12.00
2018-08-31T07:52:23.531Z,10.70
2018-08-31T07:54:52.285Z,10.97
2018-08-31T07:57:20.906Z,10.20
2018-08-31T07:59:49.576Z,10.17
2018-08-31T08:02:18.267Z,9.93
2018-08-31T08:04:46.945Z,10.13
2018-08-31T08:07:15.590Z,8.93
2018-08-31T08:09:44.317Z,9.97
2018-08-31T08:12:12.996Z,10.30
2018-08-31T08:14:41.667Z,9.47
2018-08-31T08:17:10.261Z,11.50
2018-08-31T08:19:39.011Z,10.20
2018-08-31T08:22:14.459Z,9.13
2018-08-31T08:24:43.181Z,9.40
2018-08-31T08:27:11.822Z,10.70
2018-08-31T08:29:40.449Z,8.90
2018-08-31T08:32:09.101Z,9.40
2018-08-31T08:34:37.697Z,11.13
2018-08-31T08:37:06.371Z,10.60
2018-08-31T08:39:35.029Z,10.80
2018-08-31T08:42:03.703Z,11.33
2018-08-31T08:44:32.391Z,9.80
2018-08-31T08:47:01.094Z,10.37
2018-08-31T08:49:29.911Z,8.80
2018-08-31T08:51:58.711Z,9.23
2018-08-31T08:54:27.374Z,8.63
2018-08-31T08:56:56.226Z,10.33
2018-08-31T08:59:24.939Z,9.00
2018-08-31T09:01:53.556Z,9.80
2018-08-31T09:04:22.272Z,9.60
2018-08-31T09:06:50.913Z,8.53
2018-08-31T09:09:19.571Z,10.10
2018-08-31T09:11:54.483Z,10.37
2018-08-31T09:14:23.167Z,9.57
2018-08-31T09:16:51.811Z,10.33
2018-08-31T09:19:20.776Z,9.33
2018-08-31T09:21:49.834Z,10.77
2018-08-31T09:24:18.733Z,11.90
2018-08-31T09:26:47.725Z,10.70
2018-08-31T09:29:18.510Z,9.47
2018-08-31T09:31:47.369Z,11.10
2018-08-31T09:34:16.371Z,10.97
2018-08-31T09:36:45.235Z,9.80
2018-08-31T09:39:13.907Z,9.87
2018-08-31T09:41:43.281Z,8.73
2018-08-31T09:44:11.973Z,10.00
2018-08-31T09:46:41.336Z,9.60
2018-08-31T09:49:11.179Z,10.40
2018-08-31T09:51:40.011Z,9.57
2018-08-31T09:54:08.902Z,10.53
2018-08-31T09:56:37.727Z,9.93
2018-08-31T09:59:06.728Z,10.33
2018-08-31T10:01:37.899Z,9.97
2018-08-31T10:04:07.342Z,10.93
2018-08-31T10:06:36.300Z,11.60
2018-08-31T10:09:06.883Z,11.60
2018-08-31T10:11:35.696Z,10.70
2018-08-31T10:14:04.806Z,9.80
2018-08-31T10:16:38.906Z,9.20
2018-08-31T10:19:07.660Z,9.53
2018-08-31T10:21:36.363Z,9.00
2018-08-31T10:24:05.057Z,8.33
2018-08-31T10:26:33.735Z,9.80
2018-08-31T10:29:02.412Z,8.33
2018-08-31T10:31:36.079Z,8.80
2018-08-31T10:34:04.830Z,7.90
2018-08-31T10:36:33.533Z,9.83
2018-08-31T10:39:02.211Z,8.70
2018-08-31T10:41:30.931Z,8.30
2018-08-31T10:43:59.642Z,7.80
2018-08-31T10:46:28.363Z,8.23
2018-08-31T10:48:57.037Z,8.37
2018-08-31T10:51:25.779Z,9.00
2018-08-31T10:53:54.568Z,9.67
2018-08-31T10:56:23.334Z,8.57
2018-08-31T10:58:52.142Z,9.50
2018-08-31T11:01:20.850Z,10.17
2018-08-31T11:03:49.579Z,8.83
2018-08-31T11:06:18.279Z,8.40
2018-08-31T11:08:47.111Z,8.53
2018-08-31T11:11:15.815Z,8.50
2018-08-31T11:13:44.534Z,9.80
2018-08-31T11:16:13.269Z,9.20
2018-08-31T11:18:42.039Z,9.80
2018-08-31T11:21:13.261Z,11.33
2018-08-31T11:23:42.475Z,10.10
2018-08-31T11:26:11.220Z,9.60
2018-08-31T11:28:39.950Z,9.80
2018-08-31T11:31:08.683Z,9.27
2018-08-31T11:33:37.867Z,9.60
2018-08-31T11:36:06.721Z,9.27
2018-08-31T11:38:35.467Z,9.03
2018-08-31T11:41:04.165Z,9.80
2018-08-31T11:43:32.923Z,9.63
2018-08-31T11:46:01.665Z,10.37
2018-08-31T11:48:30.471Z,9.90
2018-08-31T11:50:59.306Z,8.80
2018-08-31T11:53:28.087Z,8.60
2018-08-31T11:55:56.830Z,9.20
2018-08-31T11:58:25.590Z,9.70
2018-08-31T12:00:54.746Z,8.70
2018-08-31T12:03:23.394Z,9.40
2018-08-31T12:05:52.059Z,10.47
2018-08-31T12:08:20.693Z,9.70
2018-08-31T12:10:49.331Z,9.23
2018-08-31T12:13:17.978Z,9.57
2018-08-31T12:15:46.673Z,10.80
2018-08-31T12:18:15.345Z,9.20
2018-08-31T12:20:44.020Z,8.73
2018-08-31T12:23:12.679Z,9.80
2018-08-31T12:25:41.327Z,9.30
2018-08-31T12:28:09.988Z,8.30
2018-08-31T12:30:38.666Z,9.23
2018-08-31T12:33:07.582Z,10.13
2018-08-31T12:35:36.238Z,9.40
2018-08-31T12:38:04.930Z,8.37
2018-08-31T12:40:33.616Z,8.40
2018-08-31T12:43:02.353Z,9.00
2018-08-31T12:45:31.066Z,9.20
2018-08-31T12:47:59.717Z,9.53
2018-08-31T12:50:28.421Z,8.80
2018-08-31T12:52:58.128Z,8.17
2018-08-31T12:55:26.835Z,8.50
2018-08-31T12:57:55.490Z,8.90
2018-08-31T13:00:24.221Z,9.23
2018-08-31T13:02:53.216Z,8.90
2018-08-31T13:05:21.918Z,10.03
2018-08-31T13:07:50.547Z,9.97
2018-08-31T13:10:19.331Z,10.10
2018-08-31T13:12:48.081Z,10.30
2018-08-31T13:15:16.794Z,9.07
2018-08-31T13:17:45.534Z,10.67
2018-08-31T13:20:14.185Z,8.63
2018-08-31T13:22:42.943Z,9.60
2018-08-31T13:25:11.653Z,8.70
2018-08-31T13:27:40.313Z,10.10
2018-08-31T13:30:09.097Z,9.30
2018-08-31T13:32:37.785Z,10.00
2018-08-31T13:35:07.171Z,8.87
2018-08-31T13:37:35.859Z,9.27
2018-08-31T13:40:04.558Z,8.30
2018-08-31T13:42:33.245Z,9.30
2018-08-31T13:45:01.913Z,8.40
2018-08-31T13:47:31.037Z,10.10
2018-08-31T13:49:59.854Z,9.30
2018-08-31T13:52:28.593Z,9.20
2018-08-31T13:54:57.203Z,8.93
2018-08-31T13:57:25.961Z,8.90
2018-08-31T13:59:54.583Z,9.17
2018-08-31T14:02:23.263Z,9.30
2018-08-31T14:04:52.090Z,8.87
2018-08-31T14:07:20.710Z,8.77
2018-08-31T14:09:49.498Z,8.50
2018-08-31T14:12:18.199Z,8.73
2018-08-31T14:14:46.903Z,9.10
2018-08-31T14:17:15.967Z,9.33
2018-08-31T14:19:45.918Z,9.07
2018-08-31T14:22:14.785Z,8.70
2018-08-31T14:24:43.466Z,8.93
2018-08-31T14:27:12.160Z,9.53
2018-08-31T14:29:40.979Z,9.63
2018-08-31T14:32:09.611Z,9.77
2018-08-31T14:34:38.311Z,9.47
2018-08-31T14:37:07.136Z,8.67
2018-08-31T14:39:35.890Z,9.17
2018-08-31T14:42:04.558Z,9.20
2018-08-31T14:44:33.239Z,10.07
2018-08-31T14:47:01.982Z,9.60
2018-08-31T14:49:31.013Z,10.07
2018-08-31T14:51:59.678Z,9.93
2018-08-31T14:54:28.310Z,9.40
2018-08-31T14:56:56.990Z,10.33
2018-08-31T14:59:25.711Z,9.60
2018-08-31T15:01:54.489Z,10.40
2018-08-31T15:04:23.531Z,10.40
2018-08-31T15:06:52.241Z,9.70
2018-08-31T15:09:20.922Z,10.17
2018-08-31T15:11:49.645Z,9.13
2018-08-31T15:14:18.387Z,8.87
2018-08-31T15:16:47.110Z,10.07
2018-08-31T15:19:15.894Z,10.33
2018-08-31T15:21:44.566Z,10.10
2018-08-31T15:24:13.326Z,10.13
2018-08-31T15:26:42.010Z,9.90
2018-08-31T15:29:10.754Z,9.80
2018-08-31T15:31:39.408Z,9.70
2018-08-31T15:34:08.102Z,10.90
2018-08-31T15:36:36.809Z,10.70
2018-08-31T15:39:07.815Z,9.80
2018-08-31T15:41:36.569Z,11.37
2018-08-31T15:44:05.319Z,10.27
2018-08-31T15:46:33.980Z,10.70
2018-08-31T15:49:02.666Z,10.10
2018-08-31T15:51:31.401Z,9.97
2018-08-31T15:54:00.082Z,11.00
2018-08-31T15:56:28.724Z,10.77
2018-08-31T15:58:57.381Z,8.70
2018-08-31T16:01:26.009Z,9.07
2018-08-31T16:03:54.702Z,9.10
2018-08-31T16:06:23.378Z,9.53
2018-08-31T16:08:52.046Z,9.07
2018-08-31T16:11:20.726Z,9.60
2018-08-31T16:13:49.476Z,9.57
2018-08-31T16:16:18.450Z,9.50
2018-08-31T16:18:47.224Z,7.93
2018-08-31T16:21:15.898Z,8.47
2018-08-31T16:23:44.619Z,8.43
2018-08-31T16:26:13.253Z,8.17
2018-08-31T16:28:41.884Z,9.07
2018-08-31T16:31:10.719Z,8.57
2018-08-31T16:33:39.309Z,8.27
2018-08-31T16:36:08.529Z,8.43
2018-08-31T16:38:37.177Z,9.10
2018-08-31T16:41:05.798Z,9.17
2018-08-31T16:43:34.448Z,8.77
2018-08-31T16:46:03.205Z,9.57
2018-08-31T16:48:31.834Z,9.07
2018-08-31T16:51:00.477Z,10.07
2018-08-31T16:53:29.225Z,9.00
2018-08-31T16:55:57.884Z,9.53
2018-08-31T16:58:26.670Z,9.47
2018-08-31T17:00:55.246Z,9.50
2018-08-31T17:03:23.889Z,8.80
2018-08-31T17:05:52.502Z,9.60
2018-08-31T17:08:21.122Z,8.87
2018-08-31T17:10:55.321Z,9.90
2018-08-31T17:13:23.978Z,9.90
2018-08-31T17:15:52.590Z,10.03
2018-08-31T17:18:21.256Z,10.90
2018-08-31T17:20:49.852Z,10.83
2018-08-31T17:23:18.495Z,10.93
2018-08-31T17:25:47.128Z,9.40
2018-08-31T17:28:20.998Z,10.30
2018-08-31T17:30:53.767Z,9.97
2018-08-31T17:33:27.553Z,9.53
2018-08-31T17:36:01.447Z,10.93
2018-08-31T17:38:30.122Z,10.80
2018-08-31T17:40:58.756Z,10.27
2018-08-31T17:43:27.398Z,10.90
2018-08-31T17:45:57.004Z,10.40
2018-08-31T17:48:26.038Z,11.47
2018-08-31T17:50:55.031Z,11.90
2018-08-31T17:53:23.625Z,11.50
2018-08-31T17:55:52.345Z,11.30
2018-08-31T17:58:20.986Z,11.00
2018-08-31T18:00:49.694Z,10.90
2018-08-31T18:03:18.286Z,10.40
2018-08-31T18:05:46.963Z,12.00
2018-08-31T18:08:15.570Z,11.10
2018-08-31T18:10:44.278Z,11.40
2018-08-31T18:13:12.901Z,10.63
2018-08-31T18:15:41.578Z,10.97
2018-08-31T18:18:10.241Z,10.93
2018-08-31T18:20:38.966Z,12.10
2018-08-31T18:23:07.606Z,12.30
2018-08-31T18:25:36.282Z,11.80
2018-08-31T18:28:04.919Z,12.50
2018-08-31T18:30:33.538Z,12.20
2018-08-31T18:33:02.226Z,11.60
2018-08-31T18:35:30.875Z,13.03
2018-08-31T18:37:59.509Z,12.97
2018-08-31T18:40:28.206Z,12.30
2018-08-31T18:42:57.383Z,13.30
2018-08-31T18:45:26.441Z,13.13
2018-08-31T18:47:55.086Z,13.90
2018-08-31T18:50:23.747Z,12.83
2018-08-31T18:52:52.369Z,14.00
2018-08-31T18:55:21.010Z,13.00
2018-08-31T18:57:49.714Z,14.10
2018-08-31T19:00:18.394Z,13.37
2018-08-31T19:02:47.387Z,14.30
2018-08-31T19:05:16.109Z,14.60
2018-08-31T19:07:44.797Z,14.23
2018-08-31T19:10:13.450Z,13.77
2018-08-31T19:12:42.118Z,15.00
2018-08-31T19:15:10.764Z,14.23
2018-08-31T19:17:39.506Z,15.70
2018-08-31T19:20:08.204Z,15.40
2018-08-31T19:22:36.991Z,15.30
2018-08-31T19:25:05.718Z,14.40
2018-08-31T19:27:34.319Z,14.67
2018-08-31T19:30:02.951Z,13.63
2018-08-31T19:32:31.611Z,14.20
2018-08-31T19:35:00.317Z,13.83
2018-08-31T19:37:28.994Z,14.40
2018-08-31T19:39:57.707Z,13.17
2018-08-31T19:42:26.461Z,13.60
2018-08-31T19:44:55.233Z,13.20
2018-08-31T19:47:24.007Z,13.10
2018-08-31T19:49:53.079Z,13.43
2018-08-31T19:52:21.763Z,13.10
2018-08-31T19:54:50.390Z,12.47
2018-08-31T19:57:19.149Z,13.13
2018-08-31T19:59:47.813Z,14.60
2018-08-31T20:02:16.510Z,16.37
2018-08-31T20:04:45.202Z,14.60
2018-08-31T20:07:14.227Z,13.03
2018-08-31T20:09:43.020Z,15.80
2018-08-31T20:12:11.755Z,18.13
2018-08-31T20:14:40.419Z,13.03
2018-08-31T20:17:09.084Z,14.00
2018-08-31T20:19:37.779Z,12.67
2018-08-31T20:22:09.486Z,13.17
2018-08-31T20:24:38.154Z,14.03
2018-08-31T20:27:06.867Z,13.67
2018-08-31T20:29:35.503Z,14.87
2018-08-31T20:32:04.294Z,15.30
2018-08-31T20:34:32.961Z,15.93
2018-08-31T20:37:01.580Z,17.10
2018-08-31T20:39:30.236Z,16.23
2018-08-31T20:41:58.861Z,16.20
2018-08-31T20:44:27.646Z,16.60
2018-08-31T20:46:56.284Z,17.30
2018-08-31T20:49:24.931Z,16.37
2018-08-31T20:51:53.578Z,17.67
2018-08-31T20:54:22.359Z,17.70
2018-08-31T20:56:51.042Z,17.70
2018-08-31T20:59:19.664Z,18.87
2018-08-31T21:01:48.323Z,19.13
2018-08-31T21:04:17.007Z,18.07
2018-08-31T21:06:45.750Z,18.27
2018-08-31T21:09:14.421Z,16.80
2018-08-31T21:11:43.086Z,17.47
2018-08-31T21:14:11.737Z,16.97
2018-08-31T21:16:40.343Z,17.10
2018-08-31T21:19:09.005Z,16.93
2018-08-31T21:21:37.948Z,17.93
2018-08-31T21:24:06.622Z,16.30
2018-08-31T21:26:35.274Z,17.00
2018-08-31T21:29:03.950Z,15.37
2018-08-31T21:31:32.639Z,16.43
2018-08-31T21:34:01.326Z,16.67
2018-08-31T21:36:30.013Z,17.10
2018-08-31T21:38:58.711Z,17.63
2018-08-31T21:41:27.395Z,15.53
2018-08-31T21:43:56.120Z,16.90
2018-08-31T21:46:24.763Z,17.60
2018-08-31T21:48:53.465Z,16.30
2018-08-31T21:51:22.150Z,16.07
2018-08-31T21:53:50.832Z,16.20
2018-08-31T21:56:19.487Z,15.30
2018-08-31T21:58:48.200Z,16.90
2018-08-31T22:01:22.214Z,16.17
2018-08-31T22:03:50.966Z,15.83
2018-08-31T22:06:19.607Z,15.17
2018-08-31T22:08:48.263Z,17.83
2018-08-31T22:11:16.936Z,16.33
2018-08-31T22:13:45.638Z,15.87
2018-08-31T22:16:14.312Z,15.57
2018-08-31T22:18:43.001Z,15.00
2018-08-31T22:21:11.727Z,13.57
2018-08-31T22:23:40.354Z,14.30
2018-08-31T22:26:09.083Z,14.50
2018-08-31T22:28:37.739Z,16.33
2018-08-31T22:31:06.456Z,14.37
2018-08-31T22:33:35.123Z,13.53
2018-08-31T22:36:03.919Z,13.63
2018-08-31T22:38:32.646Z,12.83
2018-08-31T22:41:01.290Z,14.93
2018-08-31T22:43:35.074Z,14.30
2018-08-31T22:46:03.756Z,12.30
2018-08-31T22:48:32.480Z,13.33
2018-08-31T22:51:01.105Z,14.40
2018-08-31T22:53:29.837Z,13.73
2018-08-31T22:55:58.499Z,13.10
2018-08-31T22:58:27.191Z,14.67
2018-08-31T23:00:55.921Z,14.60
2018-08-31T23:03:24.662Z,15.00
2018-08-31T23:05:54.626Z,13.83
2018-08-31T23:08:23.286Z,14.27
2018-08-31T23:10:51.987Z,16.27
2018-08-31T23:13:20.701Z,14.83
2018-08-31T23:15:49.266Z,14.93
2018-08-31T23:18:17.985Z,15.97
2018-08-31T23:20:46.742Z,14.40
2018-08-31T23:23:20.357Z,13.67
2018-08-31T23:25:49.080Z,15.00
2018-08-31T23:28:18.378Z,15.63
2018-08-31T23:30:47.165Z,15.07
2018-08-31T23:33:15.991Z,15.40
2018-08-31T23:35:44.843Z,15.30
2018-08-31T23:38:14.011Z,15.20
2018-08-31T23:40:42.739Z,16.70
2018-08-31T23:43:11.395Z,16.30
2018-08-31T23:45:40.012Z,14.97
2018-08-31T23:48:08.686Z,15.03
2018-08-31T23:50:37.266Z,16.00
2018-08-31T23:53:05.969Z,14.87
2018-08-31T23:55:34.648Z,13.50
2018-08-31T23:58:03.395Z,15.00
